sensor_id;sensor_type;location;lat;lon;timestamp;P1;durP1;ratioP1;P2;durP2;ratioP2
7375;SDS011;3728;42.266;24.944;2022-09-03T00:04:47;20.50;;;18.60;;
7375;SDS011;3728;42.266;24.944;2022-09-03T00:07:42;21.98;;;19.15;;
7375;SDS011;3728;42.266;24.944;2022-09-03T00:10:15;20.88;;;18.42;;
7375;SDS011;3728;42.266;24.944;2022-09-03T00:13:11;21.60;;;19.45;;
7375;SDS011;3728;42.266;24.944;2022-09-03T00:15:43;18.70;;;16.90;;
7375;SDS011;3728;42.266;24.944;2022-09-03T00:18:13;23.90;;;19.37;;
7375;SDS011;3728;42.266;24.944;2022-09-03T00:21:08;21.42;;;19.30;;
7375;SDS011;3728;42.266;24.944;2022-09-03T00:23:43;20.88;;;18.67;;
7375;SDS011;3728;42.266;24.944;2022-09-03T00:26:16;22.45;;;20.20;;
7375;SDS011;3728;42.266;24.944;2022-09-03T00:31:55;25.95;;;20.38;;
7375;SDS011;3728;42.266;24.944;2022-09-03T00:34:30;26.13;;;20.92;;
7375;SDS011;3728;42.266;24.944;2022-09-03T00:37:06;24.83;;;22.15;;
7375;SDS011;3728;42.266;24.944;2022-09-03T00:39:40;27.58;;;21.80;;
7375;SDS011;3728;42.266;24.944;2022-09-03T00:42:20;25.95;;;22.45;;
7375;SDS011;3728;42.266;24.944;2022-09-03T00:45:17;27.57;;;21.73;;
7375;SDS011;3728;42.266;24.944;2022-09-03T00:48:21;24.75;;;21.70;;
7375;SDS011;3728;42.266;24.944;2022-09-03T00:56:56;26.30;;;23.10;;
7375;SDS011;3728;42.266;24.944;2022-09-03T00:59:51;30.77;;;24.43;;
7375;SDS011;3728;42.266;24.944;2022-09-03T01:02:49;27.67;;;22.77;;
7375;SDS011;3728;42.266;24.944;2022-09-03T01:05:40;29.17;;;21.77;;
7375;SDS011;3728;42.266;24.944;2022-09-03T01:11:22;22.92;;;20.50;;
7375;SDS011;3728;42.266;24.944;2022-09-03T01:17:56;24.27;;;20.43;;
7375;SDS011;3728;42.266;24.944;2022-09-03T01:32:25;21.80;;;17.63;;
7375;SDS011;3728;42.266;24.944;2022-09-03T01:35:29;16.93;;;15.17;;
7375;SDS011;3728;42.266;24.944;2022-09-03T01:38:30;21.00;;;15.57;;
7375;SDS011;3728;42.266;24.944;2022-09-03T01:41:26;14.55;;;13.07;;
7375;SDS011;3728;42.266;24.944;2022-09-03T01:44:40;15.33;;;13.73;;
7375;SDS011;3728;42.266;24.944;2022-09-03T01:50:56;14.67;;;13.37;;
7375;SDS011;3728;42.266;24.944;2022-09-03T02:02:42;13.73;;;12.33;;
7375;SDS011;3728;42.266;24.944;2022-09-03T02:05:23;14.40;;;12.90;;
7375;SDS011;3728;42.266;24.944;2022-09-03T02:07:55;15.07;;;13.27;;
7375;SDS011;3728;42.266;24.944;2022-09-03T02:13:30;14.57;;;12.97;;
7375;SDS011;3728;42.266;24.944;2022-09-03T02:16:09;14.63;;;12.43;;
7375;SDS011;3728;42.266;24.944;2022-09-03T02:19:03;16.63;;;12.43;;
7375;SDS011;3728;42.266;24.944;2022-09-03T02:21:39;16.47;;;12.83;;
7375;SDS011;3728;42.266;24.944;2022-09-03T02:24:17;15.07;;;12.23;;
7375;SDS011;3728;42.266;24.944;2022-09-03T02:26:45;18.97;;;12.87;;
7375;SDS011;3728;42.266;24.944;2022-09-03T02:29:14;15.03;;;12.67;;
7375;SDS011;3728;42.266;24.944;2022-09-03T02:31:43;13.13;;;11.80;;
7375;SDS011;3728;42.266;24.944;2022-09-03T02:34:12;14.07;;;11.97;;
7375;SDS011;3728;42.266;24.944;2022-09-03T02:36:41;13.93;;;12.03;;
7375;SDS011;3728;42.266;24.944;2022-09-03T02:39:14;13.67;;;12.27;;
7375;SDS011;3728;42.266;24.944;2022-09-03T02:41:42;13.97;;;12.50;;
7375;SDS011;3728;42.266;24.944;2022-09-03T02:46:59;13.37;;;12.07;;
7375;SDS011;3728;42.266;24.944;2022-09-03T02:49:31;15.50;;;12.73;;
7375;SDS011;3728;42.266;24.944;2022-09-03T02:52:00;14.57;;;13.13;;
7375;SDS011;3728;42.266;24.944;2022-09-03T02:54:32;14.63;;;13.07;;
7375;SDS011;3728;42.266;24.944;2022-09-03T02:57:05;15.80;;;12.97;;
7375;SDS011;3728;42.266;24.944;2022-09-03T02:59:35;18.47;;;13.87;;
7375;SDS011;3728;42.266;24.944;2022-09-03T03:02:05;15.17;;;12.53;;
7375;SDS011;3728;42.266;24.944;2022-09-03T03:04:33;18.53;;;12.07;;
7375;SDS011;3728;42.266;24.944;2022-09-03T03:07:01;14.07;;;12.13;;
7375;SDS011;3728;42.266;24.944;2022-09-03T03:09:28;15.67;;;12.80;;
7375;SDS011;3728;42.266;24.944;2022-09-03T03:11:56;15.83;;;12.47;;
7375;SDS011;3728;42.266;24.944;2022-09-03T03:14:23;12.70;;;11.40;;
7375;SDS011;3728;42.266;24.944;2022-09-03T03:16:51;12.93;;;11.67;;
7375;SDS011;3728;42.266;24.944;2022-09-03T03:19:19;12.20;;;11.17;;
7375;SDS011;3728;42.266;24.944;2022-09-03T03:21:46;19.10;;;11.23;;
7375;SDS011;3728;42.266;24.944;2022-09-03T03:24:14;20.37;;;10.73;;
7375;SDS011;3728;42.266;24.944;2022-09-03T03:26:41;22.43;;;11.63;;
7375;SDS011;3728;42.266;24.944;2022-09-03T03:29:13;15.90;;;11.00;;
7375;SDS011;3728;42.266;24.944;2022-09-03T03:31:46;12.93;;;11.07;;
7375;SDS011;3728;42.266;24.944;2022-09-03T03:34:13;12.67;;;11.17;;
7375;SDS011;3728;42.266;24.944;2022-09-03T03:36:44;12.73;;;11.23;;
7375;SDS011;3728;42.266;24.944;2022-09-03T03:39:13;11.83;;;10.67;;
7375;SDS011;3728;42.266;24.944;2022-09-03T03:41:40;13.50;;;10.17;;
7375;SDS011;3728;42.266;24.944;2022-09-03T03:44:08;12.83;;;10.27;;
7375;SDS011;3728;42.266;24.944;2022-09-03T03:46:37;12.90;;;9.67;;
7375;SDS011;3728;42.266;24.944;2022-09-03T03:49:07;14.03;;;11.07;;
7375;SDS011;3728;42.266;24.944;2022-09-03T03:51:37;13.80;;;10.27;;
7375;SDS011;3728;42.266;24.944;2022-09-03T03:54:06;16.03;;;10.30;;
7375;SDS011;3728;42.266;24.944;2022-09-03T03:56:33;11.10;;;10.07;;
7375;SDS011;3728;42.266;24.944;2022-09-03T03:59:02;12.20;;;10.33;;
7375;SDS011;3728;42.266;24.944;2022-09-03T04:01:30;11.27;;;9.73;;
7375;SDS011;3728;42.266;24.944;2022-09-03T04:03:58;14.90;;;9.60;;
7375;SDS011;3728;42.266;24.944;2022-09-03T04:06:26;11.63;;;10.43;;
7375;SDS011;3728;42.266;24.944;2022-09-03T04:08:54;11.90;;;9.87;;
7375;SDS011;3728;42.266;24.944;2022-09-03T04:11:22;15.77;;;10.50;;
7375;SDS011;3728;42.266;24.944;2022-09-03T04:13:52;11.40;;;9.40;;
7375;SDS011;3728;42.266;24.944;2022-09-03T04:16:26;11.87;;;10.10;;
7375;SDS011;3728;42.266;24.944;2022-09-03T04:18:55;13.87;;;9.97;;
7375;SDS011;3728;42.266;24.944;2022-09-03T04:21:26;10.43;;;8.83;;
7375;SDS011;3728;42.266;24.944;2022-09-03T04:23:57;10.67;;;9.30;;
7375;SDS011;3728;42.266;24.944;2022-09-03T04:26:26;10.03;;;9.00;;
7375;SDS011;3728;42.266;24.944;2022-09-03T04:28:59;10.00;;;9.10;;
7375;SDS011;3728;42.266;24.944;2022-09-03T04:31:32;11.97;;;9.27;;
7375;SDS011;3728;42.266;24.944;2022-09-03T04:34:02;10.27;;;9.13;;
7375;SDS011;3728;42.266;24.944;2022-09-03T04:36:35;9.63;;;8.53;;
7375;SDS011;3728;42.266;24.944;2022-09-03T04:39:02;9.43;;;8.43;;
7375;SDS011;3728;42.266;24.944;2022-09-03T04:41:30;9.47;;;8.57;;
7375;SDS011;3728;42.266;24.944;2022-09-03T04:43:58;8.87;;;7.90;;
7375;SDS011;3728;42.266;24.944;2022-09-03T04:46:27;8.87;;;7.97;;
7375;SDS011;3728;42.266;24.944;2022-09-03T04:48:59;10.83;;;8.17;;
7375;SDS011;3728;42.266;24.944;2022-09-03T04:51:28;7.80;;;6.80;;
7375;SDS011;3728;42.266;24.944;2022-09-03T04:54:00;8.30;;;7.60;;
7375;SDS011;3728;42.266;24.944;2022-09-03T04:56:29;8.90;;;7.70;;
7375;SDS011;3728;42.266;24.944;2022-09-03T04:59:00;10.53;;;7.40;;
7375;SDS011;3728;42.266;24.944;2022-09-03T05:01:32;11.17;;;7.67;;
7375;SDS011;3728;42.266;24.944;2022-09-03T05:04:01;8.13;;;7.00;;
7375;SDS011;3728;42.266;24.944;2022-09-03T05:06:31;11.90;;;7.90;;
7375;SDS011;3728;42.266;24.944;2022-09-03T05:08:59;7.80;;;7.03;;
7375;SDS011;3728;42.266;24.944;2022-09-03T05:11:27;9.77;;;6.63;;
7375;SDS011;3728;42.266;24.944;2022-09-03T05:13:56;8.70;;;6.80;;
7375;SDS011;3728;42.266;24.944;2022-09-03T05:16:26;7.13;;;6.43;;
7375;SDS011;3728;42.266;24.944;2022-09-03T05:18:57;7.33;;;6.57;;
7375;SDS011;3728;42.266;24.944;2022-09-03T05:21:27;8.83;;;6.53;;
7375;SDS011;3728;42.266;24.944;2022-09-03T05:23:58;7.87;;;6.37;;
7375;SDS011;3728;42.266;24.944;2022-09-03T05:26:28;7.60;;;6.47;;
7375;SDS011;3728;42.266;24.944;2022-09-03T05:29:04;7.57;;;6.40;;
7375;SDS011;3728;42.266;24.944;2022-09-03T05:31:34;6.43;;;5.83;;
7375;SDS011;3728;42.266;24.944;2022-09-03T05:34:07;8.17;;;7.37;;
7375;SDS011;3728;42.266;24.944;2022-09-03T05:36:42;8.53;;;7.73;;
7375;SDS011;3728;42.266;24.944;2022-09-03T05:39:10;9.90;;;8.27;;
7375;SDS011;3728;42.266;24.944;2022-09-03T05:41:38;22.87;;;20.20;;
7375;SDS011;3728;42.266;24.944;2022-09-03T05:44:06;12.57;;;8.63;;
7375;SDS011;3728;42.266;24.944;2022-09-03T05:46:34;10.00;;;7.97;;
7375;SDS011;3728;42.266;24.944;2022-09-03T05:49:03;25.60;;;20.57;;
7375;SDS011;3728;42.266;24.944;2022-09-03T05:51:33;11.73;;;8.73;;
7375;SDS011;3728;42.266;24.944;2022-09-03T05:54:04;9.43;;;7.87;;
7375;SDS011;3728;42.266;24.944;2022-09-03T05:56:34;7.93;;;7.13;;
7375;SDS011;3728;42.266;24.944;2022-09-03T05:59:07;9.17;;;7.53;;
7375;SDS011;3728;42.266;24.944;2022-09-03T06:01:37;7.53;;;6.83;;
7375;SDS011;3728;42.266;24.944;2022-09-03T06:04:17;9.30;;;8.30;;
7375;SDS011;3728;42.266;24.944;2022-09-03T06:06:46;11.10;;;10.00;;
7375;SDS011;3728;42.266;24.944;2022-09-03T06:09:16;7.37;;;6.67;;
7375;SDS011;3728;42.266;24.944;2022-09-03T06:11:49;11.17;;;10.07;;
7375;SDS011;3728;42.266;24.944;2022-09-03T06:14:18;11.37;;;7.50;;
7375;SDS011;3728;42.266;24.944;2022-09-03T06:16:46;10.13;;;7.63;;
7375;SDS011;3728;42.266;24.944;2022-09-03T06:19:15;8.13;;;7.43;;
7375;SDS011;3728;42.266;24.944;2022-09-03T06:21:45;7.83;;;7.10;;
7375;SDS011;3728;42.266;24.944;2022-09-03T06:24:17;8.50;;;6.63;;
7375;SDS011;3728;42.266;24.944;2022-09-03T06:26:54;7.97;;;7.03;;
7375;SDS011;3728;42.266;24.944;2022-09-03T06:29:25;9.67;;;6.60;;
7375;SDS011;3728;42.266;24.944;2022-09-03T06:31:52;7.53;;;6.53;;
7375;SDS011;3728;42.266;24.944;2022-09-03T06:34:22;8.50;;;6.60;;
7375;SDS011;3728;42.266;24.944;2022-09-03T06:36:52;7.80;;;6.35;;
7375;SDS011;3728;42.266;24.944;2022-09-03T06:39:20;9.25;;;6.05;;
7375;SDS011;3728;42.266;24.944;2022-09-03T06:41:48;6.40;;;4.80;;
7375;SDS011;3728;42.266;24.944;2022-09-03T06:44:27;6.90;;;5.00;;
7375;SDS011;3728;42.266;24.944;2022-09-03T06:46:54;7.88;;;4.70;;
7375;SDS011;3728;42.266;24.944;2022-09-03T06:49:26;6.28;;;4.85;;
7375;SDS011;3728;42.266;24.944;2022-09-03T06:51:54;5.25;;;4.55;;
7375;SDS011;3728;42.266;24.944;2022-09-03T06:54:21;5.57;;;5.18;;
7375;SDS011;3728;42.266;24.944;2022-09-03T06:56:50;6.32;;;5.55;;
7375;SDS011;3728;42.266;24.944;2022-09-03T06:59:18;5.93;;;5.33;;
7375;SDS011;3728;42.266;24.944;2022-09-03T07:01:45;7.25;;;5.13;;
7375;SDS011;3728;42.266;24.944;2022-09-03T07:04:14;5.88;;;5.15;;
7375;SDS011;3728;42.266;24.944;2022-09-03T07:06:44;7.30;;;5.05;;
7375;SDS011;3728;42.266;24.944;2022-09-03T07:09:12;7.95;;;6.00;;
7375;SDS011;3728;42.266;24.944;2022-09-03T07:11:41;7.38;;;5.10;;
7375;SDS011;3728;42.266;24.944;2022-09-03T07:14:14;8.57;;;5.07;;
7375;SDS011;3728;42.266;24.944;2022-09-03T07:16:47;7.50;;;4.90;;
7375;SDS011;3728;42.266;24.944;2022-09-03T07:19:16;8.93;;;5.15;;
7375;SDS011;3728;42.266;24.944;2022-09-03T07:21:44;18.63;;;16.38;;
7375;SDS011;3728;42.266;24.944;2022-09-03T07:24:16;11.88;;;9.52;;
7375;SDS011;3728;42.266;24.944;2022-09-03T07:26:47;5.72;;;5.15;;
7375;SDS011;3728;42.266;24.944;2022-09-03T07:29:15;5.43;;;4.88;;
7375;SDS011;3728;42.266;24.944;2022-09-03T07:31:47;5.18;;;4.60;;
7375;SDS011;3728;42.266;24.944;2022-09-03T07:34:18;4.30;;;3.90;;
7375;SDS011;3728;42.266;24.944;2022-09-03T07:36:47;10.45;;;3.75;;
7375;SDS011;3728;42.266;24.944;2022-09-03T07:39:18;5.78;;;4.35;;
7375;SDS011;3728;42.266;24.944;2022-09-03T07:41:46;4.53;;;4.13;;
7375;SDS011;3728;42.266;24.944;2022-09-03T07:44:14;4.97;;;4.10;;
7375;SDS011;3728;42.266;24.944;2022-09-03T07:46:49;6.93;;;3.53;;
7375;SDS011;3728;42.266;24.944;2022-09-03T07:49:18;6.32;;;3.83;;
7375;SDS011;3728;42.266;24.944;2022-09-03T07:51:47;5.07;;;4.22;;
7375;SDS011;3728;42.266;24.944;2022-09-03T07:54:20;4.30;;;3.90;;
7375;SDS011;3728;42.266;24.944;2022-09-03T07:56:49;5.20;;;3.47;;
7375;SDS011;3728;42.266;24.944;2022-09-03T07:59:16;3.60;;;3.30;;
7375;SDS011;3728;42.266;24.944;2022-09-03T08:01:45;5.95;;;3.42;;
7375;SDS011;3728;42.266;24.944;2022-09-03T08:04:13;3.60;;;3.10;;
7375;SDS011;3728;42.266;24.944;2022-09-03T08:06:41;5.80;;;3.33;;
7375;SDS011;3728;42.266;24.944;2022-09-03T08:09:09;3.80;;;3.13;;
7375;SDS011;3728;42.266;24.944;2022-09-03T08:11:41;3.30;;;3.00;;
7375;SDS011;3728;42.266;24.944;2022-09-03T08:14:10;6.32;;;3.10;;
7375;SDS011;3728;42.266;24.944;2022-09-03T08:16:40;5.05;;;3.08;;
7375;SDS011;3728;42.266;24.944;2022-09-03T08:19:13;3.42;;;2.75;;
7375;SDS011;3728;42.266;24.944;2022-09-03T08:21:44;3.30;;;3.00;;
7375;SDS011;3728;42.266;24.944;2022-09-03T08:24:13;3.70;;;2.80;;
7375;SDS011;3728;42.266;24.944;2022-09-03T08:26:43;3.72;;;3.40;;
7375;SDS011;3728;42.266;24.944;2022-09-03T08:29:18;4.32;;;3.50;;
7375;SDS011;3728;42.266;24.944;2022-09-03T08:31:47;2.97;;;2.78;;
7375;SDS011;3728;42.266;24.944;2022-09-03T08:34:15;7.97;;;3.67;;
7375;SDS011;3728;42.266;24.944;2022-09-03T08:36:43;5.93;;;3.60;;
7375;SDS011;3728;42.266;24.944;2022-09-03T08:39:12;5.10;;;3.47;;
7375;SDS011;3728;42.266;24.944;2022-09-03T08:44:30;2.85;;;2.65;;
7375;SDS011;3728;42.266;24.944;2022-09-03T08:50:49;3.97;;;3.10;;
7375;SDS011;3728;42.266;24.944;2022-09-03T08:53:29;6.10;;;3.53;;
7375;SDS011;3728;42.266;24.944;2022-09-03T08:56:26;5.22;;;3.50;;
7375;SDS011;3728;42.266;24.944;2022-09-03T08:58:56;5.63;;;3.05;;
7375;SDS011;3728;42.266;24.944;2022-09-03T09:01:31;3.38;;;2.97;;
7375;SDS011;3728;42.266;24.944;2022-09-03T09:22:01;5.60;;;3.55;;
7375;SDS011;3728;42.266;24.944;2022-09-03T09:24:39;6.22;;;5.53;;
7375;SDS011;3728;42.266;24.944;2022-09-03T09:27:12;5.55;;;3.20;;
7375;SDS011;3728;42.266;24.944;2022-09-03T09:29:45;6.90;;;3.45;;
7375;SDS011;3728;42.266;24.944;2022-09-03T09:32:17;11.82;;;9.27;;
7375;SDS011;3728;42.266;24.944;2022-09-03T09:34:47;4.10;;;3.00;;
7375;SDS011;3728;42.266;24.944;2022-09-03T09:37:18;5.80;;;3.25;;
7375;SDS011;3728;42.266;24.944;2022-09-03T09:39:57;4.25;;;2.97;;
7375;SDS011;3728;42.266;24.944;2022-09-03T09:42:26;4.55;;;3.70;;
7375;SDS011;3728;42.266;24.944;2022-09-03T09:44:56;4.03;;;3.45;;
7375;SDS011;3728;42.266;24.944;2022-09-03T09:47:38;24.95;;;4.80;;
7375;SDS011;3728;42.266;24.944;2022-09-03T09:50:17;6.55;;;3.33;;
7375;SDS011;3728;42.266;24.944;2022-09-03T09:53:01;6.13;;;3.58;;
7375;SDS011;3728;42.266;24.944;2022-09-03T09:55:55;5.50;;;3.88;;
7375;SDS011;3728;42.266;24.944;2022-09-03T09:58:26;4.03;;;3.70;;
7375;SDS011;3728;42.266;24.944;2022-09-03T10:03:32;4.28;;;3.63;;
7375;SDS011;3728;42.266;24.944;2022-09-03T10:06:05;6.50;;;3.70;;
7375;SDS011;3728;42.266;24.944;2022-09-03T10:09:07;6.35;;;3.78;;
7375;SDS011;3728;42.266;24.944;2022-09-03T10:11:39;4.18;;;3.70;;
7375;SDS011;3728;42.266;24.944;2022-09-03T10:14:22;3.78;;;3.45;;
7375;SDS011;3728;42.266;24.944;2022-09-03T10:17:00;5.25;;;3.83;;
7375;SDS011;3728;42.266;24.944;2022-09-03T10:22:54;8.02;;;5.07;;
7375;SDS011;3728;42.266;24.944;2022-09-03T10:28:40;4.13;;;3.75;;
7375;SDS011;3728;42.266;24.944;2022-09-03T10:31:12;8.35;;;4.03;;
7375;SDS011;3728;42.266;24.944;2022-09-03T10:36:45;7.63;;;4.45;;
7375;SDS011;3728;42.266;24.944;2022-09-03T10:39:53;9.98;;;4.38;;
7375;SDS011;3728;42.266;24.944;2022-09-03T10:48:20;6.43;;;4.65;;
7375;SDS011;3728;42.266;24.944;2022-09-03T10:51:04;5.65;;;4.53;;
7375;SDS011;3728;42.266;24.944;2022-09-03T10:54:24;4.72;;;4.18;;
7375;SDS011;3728;42.266;24.944;2022-09-03T10:57:18;4.65;;;4.25;;
7375;SDS011;3728;42.266;24.944;2022-09-03T11:00:02;5.43;;;4.93;;
7375;SDS011;3728;42.266;24.944;2022-09-03T11:06:11;6.07;;;5.05;;
7375;SDS011;3728;42.266;24.944;2022-09-03T11:08:57;4.80;;;4.40;;
7375;SDS011;3728;42.266;24.944;2022-09-03T11:12:08;4.30;;;3.90;;
7375;SDS011;3728;42.266;24.944;2022-09-03T11:14:59;5.10;;;4.22;;
7375;SDS011;3728;42.266;24.944;2022-09-03T11:18:03;4.70;;;4.30;;
7375;SDS011;3728;42.266;24.944;2022-09-03T11:20:42;7.55;;;4.30;;
7375;SDS011;3728;42.266;24.944;2022-09-03T11:23:11;5.18;;;4.03;;
7375;SDS011;3728;42.266;24.944;2022-09-03T11:25:42;4.28;;;3.88;;
7375;SDS011;3728;42.266;24.944;2022-09-03T11:31:48;4.55;;;4.15;;
7375;SDS011;3728;42.266;24.944;2022-09-03T11:34:30;6.78;;;3.50;;
7375;SDS011;3728;42.266;24.944;2022-09-03T11:40:07;8.63;;;3.83;;
7375;SDS011;3728;42.266;24.944;2022-09-03T11:42:45;3.97;;;3.67;;
7375;SDS011;3728;42.266;24.944;2022-09-03T11:45:33;5.55;;;3.30;;
7375;SDS011;3728;42.266;24.944;2022-09-03T11:48:17;5.00;;;3.35;;
7375;SDS011;3728;42.266;24.944;2022-09-03T11:51:16;3.70;;;3.40;;
7375;SDS011;3728;42.266;24.944;2022-09-03T11:54:05;4.05;;;3.30;;
7375;SDS011;3728;42.266;24.944;2022-09-03T11:56:37;3.63;;;3.40;;
7375;SDS011;3728;42.266;24.944;2022-09-03T11:59:17;4.18;;;3.35;;
7375;SDS011;3728;42.266;24.944;2022-09-03T12:04:34;3.55;;;3.25;;
7375;SDS011;3728;42.266;24.944;2022-09-03T12:10:54;3.17;;;2.97;;
7375;SDS011;3728;42.266;24.944;2022-09-03T12:13:57;3.15;;;2.88;;
7375;SDS011;3728;42.266;24.944;2022-09-03T12:17:07;4.22;;;3.30;;
7375;SDS011;3728;42.266;24.944;2022-09-03T12:20:40;3.15;;;2.95;;
7375;SDS011;3728;42.266;24.944;2022-09-03T12:23:10;4.97;;;3.05;;
7375;SDS011;3728;42.266;24.944;2022-09-03T12:25:42;4.32;;;3.20;;
7375;SDS011;3728;42.266;24.944;2022-09-03T12:28:16;6.05;;;5.40;;
7375;SDS011;3728;42.266;24.944;2022-09-03T12:30:50;7.18;;;6.47;;
7375;SDS011;3728;42.266;24.944;2022-09-03T12:33:20;4.20;;;3.22;;
7375;SDS011;3728;42.266;24.944;2022-09-03T12:35:59;4.10;;;3.10;;
7375;SDS011;3728;42.266;24.944;2022-09-03T12:38:29;3.28;;;2.97;;
7375;SDS011;3728;42.266;24.944;2022-09-03T12:41:27;4.05;;;2.97;;
7375;SDS011;3728;42.266;24.944;2022-09-03T12:44:01;4.35;;;2.78;;
7375;SDS011;3728;42.266;24.944;2022-09-03T12:46:31;3.25;;;2.95;;
7375;SDS011;3728;42.266;24.944;2022-09-03T12:49:04;2.92;;;2.72;;
7375;SDS011;3728;42.266;24.944;2022-09-03T12:51:57;4.90;;;3.05;;
7375;SDS011;3728;42.266;24.944;2022-09-03T12:54:33;3.33;;;3.03;;
7375;SDS011;3728;42.266;24.944;2022-09-03T12:57:17;4.03;;;3.05;;
7375;SDS011;3728;42.266;24.944;2022-09-03T12:59:52;2.97;;;2.78;;
7375;SDS011;3728;42.266;24.944;2022-09-03T13:02:27;2.85;;;2.55;;
7375;SDS011;3728;42.266;24.944;2022-09-03T13:05:09;2.53;;;2.33;;
7375;SDS011;3728;42.266;24.944;2022-09-03T13:07:46;2.83;;;2.60;;
7375;SDS011;3728;42.266;24.944;2022-09-03T13:10:28;4.00;;;2.35;;
7375;SDS011;3728;42.266;24.944;2022-09-03T13:22:21;3.40;;;2.40;;
7375;SDS011;3728;42.266;24.944;2022-09-03T13:28:19;3.03;;;2.60;;
7375;SDS011;3728;42.266;24.944;2022-09-03T13:33:58;4.38;;;2.90;;
7375;SDS011;3728;42.266;24.944;2022-09-03T13:36:48;2.55;;;2.25;;
7375;SDS011;3728;42.266;24.944;2022-09-03T13:39:32;2.72;;;2.13;;
7375;SDS011;3728;42.266;24.944;2022-09-03T13:42:12;3.28;;;2.22;;
7375;SDS011;3728;42.266;24.944;2022-09-03T13:44:55;2.10;;;1.90;;
7375;SDS011;3728;42.266;24.944;2022-09-03T13:48:03;4.15;;;2.33;;
7375;SDS011;3728;42.266;24.944;2022-09-03T13:50:54;3.25;;;2.00;;
7375;SDS011;3728;42.266;24.944;2022-09-03T13:53:52;2.00;;;1.80;;
7375;SDS011;3728;42.266;24.944;2022-09-03T13:57:25;4.57;;;1.75;;
7375;SDS011;3728;42.266;24.944;2022-09-03T14:11:59;1.60;;;1.50;;
7375;SDS011;3728;42.266;24.944;2022-09-03T14:14:40;1.70;;;1.30;;
7375;SDS011;3728;42.266;24.944;2022-09-03T14:23:39;1.38;;;1.15;;
7375;SDS011;3728;42.266;24.944;2022-09-03T14:26:16;5.18;;;1.40;;
7375;SDS011;3728;42.266;24.944;2022-09-03T14:29:13;6.15;;;1.38;;
7375;SDS011;3728;42.266;24.944;2022-09-03T14:31:57;3.22;;;1.52;;
7375;SDS011;3728;42.266;24.944;2022-09-03T14:46:31;2.85;;;1.13;;
7375;SDS011;3728;42.266;24.944;2022-09-03T14:56:04;1.70;;;1.33;;
7375;SDS011;3728;42.266;24.944;2022-09-03T15:05:17;2.95;;;1.30;;
7375;SDS011;3728;42.266;24.944;2022-09-03T15:08:10;4.32;;;2.42;;
7375;SDS011;3728;42.266;24.944;2022-09-03T15:10:51;2.80;;;1.30;;
7375;SDS011;3728;42.266;24.944;2022-09-03T15:13:34;3.72;;;1.38;;
7375;SDS011;3728;42.266;24.944;2022-09-03T15:21:57;5.65;;;1.35;;
7375;SDS011;3728;42.266;24.944;2022-09-03T15:27:55;1.00;;;1.00;;
7375;SDS011;3728;42.266;24.944;2022-09-03T15:30:57;2.25;;;1.10;;
7375;SDS011;3728;42.266;24.944;2022-09-03T15:36:17;2.60;;;2.40;;
7375;SDS011;3728;42.266;24.944;2022-09-03T15:38:49;4.00;;;2.72;;
7375;SDS011;3728;42.266;24.944;2022-09-03T15:44:33;3.08;;;2.67;;
7375;SDS011;3728;42.266;24.944;2022-09-03T15:47:29;5.15;;;2.45;;
7375;SDS011;3728;42.266;24.944;2022-09-03T15:52:58;5.50;;;2.45;;
7375;SDS011;3728;42.266;24.944;2022-09-03T15:55:40;3.80;;;2.50;;
7375;SDS011;3728;42.266;24.944;2022-09-03T16:10:13;5.28;;;2.78;;
7375;SDS011;3728;42.266;24.944;2022-09-03T16:13:01;2.42;;;2.22;;
7375;SDS011;3728;42.266;24.944;2022-09-03T16:15:59;4.20;;;2.25;;
7375;SDS011;3728;42.266;24.944;2022-09-03T16:18:37;2.78;;;2.30;;
7375;SDS011;3728;42.266;24.944;2022-09-03T16:24:16;2.78;;;2.30;;
7375;SDS011;3728;42.266;24.944;2022-09-03T16:29:57;4.47;;;2.50;;
7375;SDS011;3728;42.266;24.944;2022-09-03T16:35:26;13.10;;;10.60;;
7375;SDS011;3728;42.266;24.944;2022-09-03T16:41:27;2.45;;;2.25;;
7375;SDS011;3728;42.266;24.944;2022-09-03T17:13:48;2.50;;;2.40;;
7375;SDS011;3728;42.266;24.944;2022-09-03T17:19:59;2.90;;;2.60;;
7375;SDS011;3728;42.266;24.944;2022-09-03T17:25:33;3.10;;;2.75;;
7375;SDS011;3728;42.266;24.944;2022-09-03T17:30:38;2.80;;;2.60;;
7375;SDS011;3728;42.266;24.944;2022-09-03T17:36:34;2.63;;;2.42;;
7375;SDS011;3728;42.266;24.944;2022-09-03T17:48:06;3.30;;;2.50;;
7375;SDS011;3728;42.266;24.944;2022-09-03T17:50:46;2.70;;;2.35;;
7375;SDS011;3728;42.266;24.944;2022-09-03T17:53:51;5.60;;;2.53;;
7375;SDS011;3728;42.266;24.944;2022-09-03T17:59:43;3.97;;;2.50;;
7375;SDS011;3728;42.266;24.944;2022-09-03T18:02:31;2.45;;;2.25;;
7375;SDS011;3728;42.266;24.944;2022-09-03T18:05:26;2.75;;;2.55;;
7375;SDS011;3728;42.266;24.944;2022-09-03T18:08:21;2.97;;;2.38;;
7375;SDS011;3728;42.266;24.944;2022-09-03T18:11:21;2.67;;;2.08;;
7375;SDS011;3728;42.266;24.944;2022-09-03T18:17:44;2.38;;;2.22;;
7375;SDS011;3728;42.266;24.944;2022-09-03T18:20:25;2.45;;;2.25;;
7375;SDS011;3728;42.266;24.944;2022-09-03T18:26:48;2.80;;;2.60;;
7375;SDS011;3728;42.266;24.944;2022-09-03T18:29:47;2.45;;;2.33;;
7375;SDS011;3728;42.266;24.944;2022-09-03T18:32:50;3.80;;;2.45;;
7375;SDS011;3728;42.266;24.944;2022-09-03T18:35:36;2.53;;;2.42;;
7375;SDS011;3728;42.266;24.944;2022-09-03T18:38:27;2.92;;;2.72;;
7375;SDS011;3728;42.266;24.944;2022-09-03T18:41:38;2.60;;;2.40;;
7375;SDS011;3728;42.266;24.944;2022-09-03T18:56:49;9.77;;;3.25;;
7375;SDS011;3728;42.266;24.944;2022-09-03T19:02:54;3.33;;;2.55;;
7375;SDS011;3728;42.266;24.944;2022-09-03T19:22:35;4.18;;;3.20;;
7375;SDS011;3728;42.266;24.944;2022-09-03T19:25:26;7.60;;;3.13;;
7375;SDS011;3728;42.266;24.944;2022-09-03T19:31:09;5.68;;;3.25;;
7375;SDS011;3728;42.266;24.944;2022-09-03T19:41:24;4.57;;;3.53;;
7375;SDS011;3728;42.266;24.944;2022-09-03T19:44:49;6.65;;;3.92;;
7375;SDS011;3728;42.266;24.944;2022-09-03T19:51:21;4.25;;;3.63;;
7375;SDS011;3728;42.266;24.944;2022-09-03T19:54:24;3.50;;;3.30;;
7375;SDS011;3728;42.266;24.944;2022-09-03T19:57:14;4.07;;;3.78;;
7375;SDS011;3728;42.266;24.944;2022-09-03T20:00:03;4.00;;;3.45;;
7375;SDS011;3728;42.266;24.944;2022-09-03T20:02:58;4.05;;;3.63;;
7375;SDS011;3728;42.266;24.944;2022-09-03T20:05:48;4.85;;;4.05;;
7375;SDS011;3728;42.266;24.944;2022-09-03T20:08:37;7.28;;;3.70;;
7375;SDS011;3728;42.266;24.944;2022-09-03T20:11:25;4.22;;;3.78;;
7375;SDS011;3728;42.266;24.944;2022-09-03T20:13:57;4.03;;;3.72;;
7375;SDS011;3728;42.266;24.944;2022-09-03T20:23:29;9.43;;;3.72;;
7375;SDS011;3728;42.266;24.944;2022-09-03T20:35:46;4.22;;;3.80;;
7375;SDS011;3728;42.266;24.944;2022-09-03T20:50:15;4.03;;;3.70;;
7375;SDS011;3728;42.266;24.944;2022-09-03T21:02:56;3.88;;;3.58;;
7375;SDS011;3728;42.266;24.944;2022-09-03T21:05:46;3.72;;;3.42;;
7375;SDS011;3728;42.266;24.944;2022-09-03T21:25:54;4.20;;;3.90;;
7375;SDS011;3728;42.266;24.944;2022-09-03T21:28:28;3.92;;;3.63;;
7375;SDS011;3728;42.266;24.944;2022-09-03T21:31:00;8.30;;;3.88;;
7375;SDS011;3728;42.266;24.944;2022-09-03T21:33:39;3.97;;;3.67;;
7375;SDS011;3728;42.266;24.944;2022-09-03T21:36:23;4.68;;;3.30;;
7375;SDS011;3728;42.266;24.944;2022-09-03T21:39:07;5.85;;;3.40;;
7375;SDS011;3728;42.266;24.944;2022-09-03T21:45:03;3.33;;;3.10;;
7375;SDS011;3728;42.266;24.944;2022-09-03T21:48:02;3.92;;;3.20;;
7375;SDS011;3728;42.266;24.944;2022-09-03T21:50:38;3.00;;;2.80;;
7375;SDS011;3728;42.266;24.944;2022-09-03T21:56:03;3.97;;;3.67;;
7375;SDS011;3728;42.266;24.944;2022-09-03T21:59:31;3.30;;;3.10;;
7375;SDS011;3728;42.266;24.944;2022-09-03T22:02:47;3.30;;;3.00;;
7375;SDS011;3728;42.266;24.944;2022-09-03T22:05:16;4.90;;;3.33;;
7375;SDS011;3728;42.266;24.944;2022-09-03T22:14:09;3.50;;;3.15;;
7375;SDS011;3728;42.266;24.944;2022-09-03T22:19:50;3.38;;;3.08;;
7375;SDS011;3728;42.266;24.944;2022-09-03T22:22:34;3.50;;;3.20;;
7375;SDS011;3728;42.266;24.944;2022-09-03T22:28:41;3.17;;;2.88;;
7375;SDS011;3728;42.266;24.944;2022-09-03T22:44:15;3.17;;;2.97;;
7375;SDS011;3728;42.266;24.944;2022-09-03T22:56:25;3.10;;;2.90;;